Time;durP1;ratioP1;P1;durP2;ratioP2;P2;SDS_P1;SDS_P2;PMS_P1;PMS_P2;Temp;Humidity;BMP_temperature;BMP_pressure;BME280_temperature;BME280_humidity;BME280_pressure;Samples;Min_cycle;Max_cycle;Signal;HPM_P1;HPM_P2
2023/01/25 00:01:14;;;;;;;14.82;8.88;;;1.80;99.90;;;;;;4900608;29;20298;-73
2023/01/25 00:03:40;;;;;;;14.07;9.13;;;1.80;99.90;;;;;;4900212;29;20037;-73
2023/01/25 00:06:06;;;;;;;13.55;10.02;;;1.80;99.90;;;;;;4888157;29;20044;-74
2023/01/25 00:08:31;;;;;;;12.73;8.85;;;1.80;99.90;;;;;;4899282;29;20032;-74
2023/01/25 00:10:57;;;;;;;15.73;9.93;;;1.90;99.90;;;;;;4899800;29;20708;-74
2023/01/25 00:13:22;;;;;;;12.90;8.15;;;1.80;99.90;;;;;;4895538;29;20040;-74
2023/01/25 00:15:48;;;;;;;12.48;8.02;;;1.80;99.90;;;;;;4896770;29;20079;-73
2023/01/25 00:18:14;;;;;;;17.25;9.30;;;1.70;99.90;;;;;;4905976;29;20040;-73
2023/01/25 00:20:39;;;;;;;13.57;9.00;;;1.70;99.90;;;;;;4902547;29;20032;-73
2023/01/25 00:23:05;;;;;;;16.02;9.55;;;1.70;99.90;;;;;;4897595;29;20044;-74
2023/01/25 00:25:30;;;;;;;19.45;10.48;;;1.70;99.90;;;;;;4898989;29;20036;-77
2023/01/25 00:27:56;;;;;;;18.38;11.40;;;1.60;99.90;;;;;;4896096;29;20044;-78
2023/01/25 00:30:22;;;;;;;17.38;10.40;;;1.60;99.90;;;;;;4895557;29;20659;-78
2023/01/25 00:33:01;;;;;;;18.05;11.20;;;1.60;99.90;;;;;;4899698;29;20060;-78
2023/01/25 00:35:31;;;;;;;16.60;10.05;;;1.60;99.90;;;;;;4897052;29;20032;-77
2023/01/25 00:38:01;;;;;;;13.18;9.38;;;1.60;99.90;;;;;;4899333;29;20063;-79
2023/01/25 00:40:27;;;;;;;16.95;10.68;;;1.50;99.90;;;;;;4903131;29;20391;-78
2023/01/25 00:42:52;;;;;;;15.80;9.90;;;1.40;99.90;;;;;;4894593;29;20055;-79
2023/01/25 00:45:18;;;;;;;16.42;10.13;;;1.40;99.90;;;;;;4893969;29;20046;-74
2023/01/25 00:47:43;;;;;;;14.77;9.77;;;1.40;99.90;;;;;;4891260;29;20509;-74
2023/01/25 00:50:10;;;;;;;15.18;9.73;;;1.50;99.90;;;;;;4896949;29;21326;-75
2023/01/25 00:52:35;;;;;;;14.98;9.82;;;1.50;99.90;;;;;;4898112;29;20039;-75
2023/01/25 00:55:02;;;;;;;15.00;10.40;;;1.50;99.90;;;;;;4898256;29;20058;-76
2023/01/25 00:57:27;;;;;;;19.13;10.85;;;1.50;99.90;;;;;;4904439;29;21292;-75
2023/01/25 00:59:53;;;;;;;14.15;10.75;;;1.50;99.90;;;;;;4900810;29;20036;-73
2023/01/25 01:02:19;;;;;;;17.05;11.00;;;1.40;99.90;;;;;;4894453;29;20581;-75
2023/01/25 01:04:44;;;;;;;17.15;11.10;;;1.50;99.90;;;;;;4900835;29;20040;-74
2023/01/25 01:07:14;;;;;;;18.95;12.50;;;1.50;99.90;;;;;;4901204;29;20044;-75
2023/01/25 01:09:40;;;;;;;21.20;13.30;;;1.50;99.90;;;;;;4901800;29;20032;-75
2023/01/25 01:12:05;;;;;;;22.40;14.90;;;1.50;99.90;;;;;;4899571;29;20047;-76
2023/01/25 01:14:31;;;;;;;23.33;14.82;;;1.70;99.90;;;;;;4907486;29;20024;-71
2023/01/25 01:16:57;;;;;;;24.67;13.38;;;1.80;99.90;;;;;;4901876;29;20063;-73
2023/01/25 01:19:22;;;;;;;20.95;13.82;;;1.80;99.90;;;;;;4898773;29;20441;-73
2023/01/25 01:21:48;;;;;;;21.83;13.68;;;1.90;99.90;;;;;;4896844;29;20039;-80
2023/01/25 01:24:14;;;;;;;22.08;13.65;;;2.00;99.90;;;;;;4905300;29;20052;-76
2023/01/25 01:26:39;;;;;;;24.67;14.43;;;1.90;99.90;;;;;;4900459;29;20462;-80
2023/01/25 01:29:05;;;;;;;25.35;14.77;;;1.80;99.90;;;;;;4895850;29;20063;-81
2023/01/25 01:31:31;;;;;;;24.27;14.80;;;1.90;99.90;;;;;;4894651;29;20076;-75
2023/01/25 01:33:57;;;;;;;21.70;14.13;;;1.90;99.90;;;;;;4897705;29;20056;-78
2023/01/25 01:36:26;;;;;;;20.98;13.38;;;2.10;99.90;;;;;;4901001;29;20040;-84
2023/01/25 01:38:51;;;;;;;22.42;13.50;;;2.20;99.90;;;;;;4894008;29;20040;-80
2023/01/25 01:41:18;;;;;;;22.13;14.07;;;2.10;99.90;;;;;;4900468;29;20032;-79
2023/01/25 01:43:44;;;;;;;26.27;14.88;;;2.10;99.90;;;;;;4901782;29;20038;-81
2023/01/25 01:46:23;;;;;;;31.75;18.33;;;1.90;99.90;;;;;;4899285;29;20066;-80
2023/01/25 01:49:01;;;;;;;29.27;17.67;;;1.90;99.90;;;;;;4904358;29;20054;-80
2023/01/25 01:52:00;;;;;;;27.42;17.45;;;1.70;99.90;;;;;;4903084;29;20020;-79
2023/01/25 01:54:31;;;;;;;30.00;16.63;;;1.70;99.90;;;;;;4893266;29;20079;-77
2023/01/25 01:57:08;;;;;;;26.63;15.40;;;1.70;99.90;;;;;;4901958;29;20048;-77
2023/01/25 01:59:41;;;;;;;25.05;15.10;;;1.60;99.90;;;;;;4896686;29;20059;-72
2023/01/25 02:02:07;;;;;;;22.42;14.93;;;1.50;99.90;;;;;;4900947;29;20062;-83
2023/01/25 02:04:33;;;;;;;26.48;15.43;;;1.60;99.90;;;;;;4897448;29;20505;-81
2023/01/25 02:07:18;;;;;;;22.95;15.13;;;1.80;99.90;;;;;;4896442;29;20043;-76
2023/01/25 02:09:44;;;;;;;25.38;15.63;;;1.90;99.90;;;;;;4891544;29;20032;-81
2023/01/25 02:12:12;;;;;;;22.90;14.15;;;1.90;99.90;;;;;;4892379;29;20122;-80
2023/01/25 02:14:45;;;;;;;23.08;14.10;;;2.10;99.90;;;;;;4893675;29;20032;-81
2023/01/25 02:17:11;;;;;;;22.33;13.90;;;2.20;99.90;;;;;;4891880;29;20143;-79
2023/01/25 02:20:27;;;;;;;19.75;12.38;;;2.10;99.90;;;;;;4876898;29;20050;-77
2023/01/25 02:22:59;;;;;;;21.38;14.23;;;2.10;99.90;;;;;;4857474;29;20673;-79
2023/01/25 02:25:26;;;;;;;19.70;13.15;;;2.10;99.90;;;;;;4846733;29;20105;-79
2023/01/25 02:27:59;;;;;;;17.95;12.18;;;2.10;99.90;;;;;;4875208;29;20072;-78
2023/01/25 02:30:25;;;;;;;25.77;15.90;;;2.10;99.90;;;;;;4891101;29;20032;-80
2023/01/25 02:32:51;;;;;;;15.30;9.75;;;2.10;99.90;;;;;;4895792;29;20104;-79
2023/01/25 02:35:22;;;;;;;14.88;10.23;;;2.10;99.90;;;;;;4887958;29;20546;-79
2023/01/25 02:37:49;;;;;;;14.68;9.65;;;2.10;99.90;;;;;;4894792;29;20502;-78
2023/01/25 02:40:16;;;;;;;15.65;10.73;;;2.00;99.90;;;;;;4895306;29;20032;-80
2023/01/25 02:42:43;;;;;;;16.38;10.63;;;2.10;99.90;;;;;;4893492;29;20036;-79
2023/01/25 02:45:15;;;;;;;12.20;9.05;;;2.10;99.90;;;;;;4876406;29;20140;-80
2023/01/25 02:47:41;;;;;;;14.10;9.70;;;2.20;99.90;;;;;;4893223;29;20036;-80
2023/01/25 02:50:07;;;;;;;14.20;9.27;;;2.20;99.90;;;;;;4892347;29;20048;-80
2023/01/25 02:52:33;;;;;;;13.95;9.68;;;2.20;99.90;;;;;;4894294;29;20076;-80
2023/01/25 02:54:59;;;;;;;13.32;8.85;;;2.30;99.90;;;;;;4889632;29;20155;-81
2023/01/25 02:57:24;;;;;;;12.60;9.05;;;2.30;99.90;;;;;;4890835;29;20048;-80
2023/01/25 02:59:50;;;;;;;13.43;9.50;;;2.40;99.90;;;;;;4890431;29;20305;-80
2023/01/25 03:02:15;;;;;;;12.77;9.38;;;2.30;99.90;;;;;;4896006;29;20427;-79
2023/01/25 03:04:41;;;;;;;13.32;9.80;;;2.30;99.90;;;;;;4896028;29;20036;-77
2023/01/25 03:07:07;;;;;;;14.13;8.98;;;2.40;99.90;;;;;;4904833;29;20055;-77
2023/01/25 03:09:32;;;;;;;16.10;8.77;;;2.40;99.90;;;;;;4895148;29;20140;-78
2023/01/25 03:11:58;;;;;;;13.07;9.00;;;2.40;99.90;;;;;;4896003;29;20774;-78
2023/01/25 03:14:24;;;;;;;12.90;9.48;;;2.40;99.90;;;;;;4892402;29;20040;-71
2023/01/25 03:16:49;;;;;;;12.73;8.82;;;2.40;99.90;;;;;;4896317;29;20044;-72
2023/01/25 03:19:15;;;;;;;10.88;8.45;;;2.50;99.90;;;;;;4900213;29;20131;-72
2023/01/25 03:21:41;;;;;;;18.17;12.45;;;2.50;99.90;;;;;;4897130;29;20032;-71
2023/01/25 03:24:08;;;;;;;23.75;15.60;;;2.50;99.90;;;;;;4896122;29;20208;-71
2023/01/25 03:27:09;;;;;;;23.58;16.20;;;2.50;99.90;;;;;;4894236;29;20036;-71
2023/01/25 03:29:20;;;;;;;15.35;10.52;;;2.50;99.90;;;;;;4893799;29;20470;-71
2023/01/25 03:31:45;;;;;;;14.25;8.85;;;2.50;99.90;;;;;;4901598;29;20044;-71
2023/01/25 03:34:11;;;;;;;17.42;10.55;;;2.40;99.90;;;;;;4896752;29;20041;-71
2023/01/25 03:36:36;;;;;;;12.80;9.35;;;2.40;99.90;;;;;;4894568;29;20103;-71
2023/01/25 03:39:02;;;;;;;15.50;9.63;;;2.40;99.90;;;;;;4895202;29;20044;-71
2023/01/25 03:41:28;;;;;;;13.15;8.68;;;2.50;99.90;;;;;;4895722;29;20786;-71
2023/01/25 03:43:54;;;;;;;15.65;10.20;;;2.50;99.90;;;;;;4891476;29;20127;-72
2023/01/25 03:46:19;;;;;;;15.20;11.35;;;2.60;99.90;;;;;;4896800;29;20036;-72
2023/01/25 03:48:45;;;;;;;13.23;10.25;;;2.70;99.90;;;;;;4897225;29;20124;-72
2023/01/25 03:51:11;;;;;;;22.80;13.10;;;2.70;99.90;;;;;;4896641;29;20081;-71
2023/01/25 03:53:37;;;;;;;70.82;32.78;;;2.60;99.90;;;;;;4899911;29;20048;-72
2023/01/25 03:56:08;;;;;;;74.15;33.13;;;2.50;99.90;;;;;;4897532;29;20537;-78
2023/01/25 03:58:36;;;;;;;63.78;28.75;;;2.40;99.90;;;;;;4898679;29;20054;-78
2023/01/25 04:01:03;;;;;;;36.08;18.45;;;2.20;99.90;;;;;;4880533;29;20043;-77
2023/01/25 04:03:29;;;;;;;37.90;17.88;;;2.10;99.90;;;;;;4900902;29;20040;-77
2023/01/25 04:05:56;;;;;;;37.67;19.58;;;2.10;99.90;;;;;;4890095;29;20070;-78
2023/01/25 04:08:23;;;;;;;68.25;31.30;;;2.10;99.90;;;;;;4884158;29;20044;-78
2023/01/25 04:10:59;;;;;;;59.17;28.23;;;2.10;99.90;;;;;;4893904;29;20173;-78
2023/01/25 04:13:24;;;;;;;30.92;16.83;;;2.20;99.90;;;;;;4894645;29;20185;-79
2023/01/25 04:15:51;;;;;;;35.17;20.52;;;2.20;99.90;;;;;;4897572;29;20469;-79
2023/01/25 04:18:17;;;;;;;33.92;21.20;;;2.20;99.90;;;;;;4899268;29;20048;-79
2023/01/25 04:20:43;;;;;;;28.65;17.85;;;2.40;99.90;;;;;;4897011;29;20070;-79
2023/01/25 04:23:09;;;;;;;20.83;12.98;;;2.50;99.90;;;;;;4900250;29;20032;-78
2023/01/25 04:25:36;;;;;;;20.63;12.57;;;2.50;99.90;;;;;;4897565;29;20096;-78
2023/01/25 04:28:02;;;;;;;23.10;14.68;;;2.50;99.90;;;;;;4898914;29;20048;-78
2023/01/25 04:30:28;;;;;;;18.73;12.95;;;2.50;99.90;;;;;;4882339;29;20062;-78
2023/01/25 04:32:53;;;;;;;16.98;11.57;;;2.50;99.90;;;;;;4899043;29;20048;-78
2023/01/25 04:35:19;;;;;;;18.95;12.82;;;2.70;99.90;;;;;;4896408;29;20550;-79
2023/01/25 04:37:55;;;;;;;20.17;11.85;;;2.70;99.90;;;;;;4894341;29;20584;-78
2023/01/25 04:40:20;;;;;;;16.42;11.75;;;2.70;99.90;;;;;;4897966;29;20127;-78
2023/01/25 04:42:46;;;;;;;34.38;21.90;;;2.70;99.90;;;;;;4896725;29;20040;-78
2023/01/25 04:45:12;;;;;;;22.55;14.77;;;2.70;99.90;;;;;;4900449;29;20126;-78
2023/01/25 04:47:37;;;;;;;19.88;13.00;;;2.80;99.90;;;;;;4897057;29;20082;-78
2023/01/25 04:50:03;;;;;;;18.20;12.32;;;2.90;99.90;;;;;;4900379;29;20082;-78
2023/01/25 04:52:29;;;;;;;19.83;12.68;;;2.90;99.90;;;;;;4890435;29;20127;-72
2023/01/25 04:54:54;;;;;;;17.92;12.05;;;2.80;99.90;;;;;;4902828;29;20810;-72
2023/01/25 04:57:20;;;;;;;19.42;12.65;;;2.60;99.90;;;;;;4899403;29;20028;-72
2023/01/25 04:59:46;;;;;;;23.73;12.68;;;2.40;99.90;;;;;;4895558;29;20048;-72
2023/01/25 05:02:11;;;;;;;21.35;13.07;;;2.20;99.90;;;;;;4892055;29;20036;-72
2023/01/25 05:04:37;;;;;;;25.55;14.43;;;2.20;99.90;;;;;;4893489;29;20044;-70
2023/01/25 05:07:02;;;;;;;24.63;14.80;;;2.00;99.90;;;;;;4896777;29;20032;-72
2023/01/25 05:09:28;;;;;;;22.25;14.35;;;1.90;99.90;;;;;;4881424;29;20988;-72
2023/01/25 05:11:54;;;;;;;21.15;14.15;;;1.90;99.90;;;;;;4896034;29;20170;-72
2023/01/25 05:14:19;;;;;;;20.75;13.57;;;1.90;99.90;;;;;;4896202;29;20036;-71
2023/01/25 05:16:46;;;;;;;24.38;16.42;;;1.90;99.90;;;;;;4898998;29;20040;-72
2023/01/25 05:19:12;;;;;;;27.67;17.48;;;2.00;99.90;;;;;;4896022;29;20057;-72
2023/01/25 05:24:21;;;;;;;27.40;16.30;;;2.00;99.90;;;;;;4899134;29;20570;-72
2023/01/25 05:26:59;;;;;;;20.50;14.15;;;2.00;99.90;;;;;;4877847;29;20186;-72
2023/01/25 05:29:29;;;;;;;17.02;10.50;;;1.80;99.90;;;;;;4900098;29;20518;-78
2023/01/25 05:31:54;;;;;;;19.45;12.95;;;1.80;99.90;;;;;;4893750;29;20589;-71
2023/01/25 05:34:20;;;;;;;17.90;11.85;;;1.70;99.90;;;;;;4882862;29;20020;-72
2023/01/25 05:36:46;;;;;;;13.95;8.70;;;1.70;99.90;;;;;;4891962;29;20051;-71
2023/01/25 05:39:11;;;;;;;14.57;10.25;;;1.70;99.90;;;;;;4891474;29;20044;-72
2023/01/25 05:41:37;;;;;;;15.45;10.65;;;1.60;99.90;;;;;;4895173;29;20393;-71
2023/01/25 05:44:03;;;;;;;16.48;9.88;;;1.60;99.90;;;;;;4903838;29;20665;-71
2023/01/25 05:46:28;;;;;;;16.27;8.45;;;1.40;99.90;;;;;;4897557;29;20043;-71
2023/01/25 05:48:54;;;;;;;13.52;9.10;;;1.40;99.90;;;;;;4896976;29;20409;-75
2023/01/25 05:51:20;;;;;;;12.88;8.68;;;1.40;99.90;;;;;;4905242;29;20408;-76
2023/01/25 05:53:45;;;;;;;12.93;8.10;;;1.40;99.90;;;;;;4895007;29;20036;-75
2023/01/25 05:56:11;;;;;;;13.80;8.40;;;1.30;99.90;;;;;;4904983;29;20048;-76
2023/01/25 05:58:37;;;;;;;15.00;8.60;;;1.20;99.90;;;;;;4902240;29;20045;-75
2023/01/25 06:01:05;;;;;;;13.80;9.65;;;1.10;99.90;;;;;;4888239;29;20027;-75
2023/01/25 06:03:31;;;;;;;13.98;8.90;;;1.00;99.90;;;;;;4895254;29;20056;-73
2023/01/25 06:06:00;;;;;;;13.40;9.13;;;1.00;99.90;;;;;;4895090;29;20043;-74
2023/01/25 06:08:27;;;;;;;13.27;9.15;;;1.00;99.90;;;;;;4893815;29;20505;-70
2023/01/25 06:10:53;;;;;;;12.98;8.77;;;1.00;99.90;;;;;;4893911;29;20080;-70
2023/01/25 06:13:18;;;;;;;15.02;9.65;;;1.00;99.90;;;;;;4893077;29;20045;-71
2023/01/25 06:15:54;;;;;;;16.90;11.00;;;1.10;99.90;;;;;;4896404;29;20104;-70
2023/01/25 06:18:21;;;;;;;16.00;10.75;;;1.20;99.90;;;;;;4909038;29;20063;-71
2023/01/25 06:20:47;;;;;;;20.17;11.98;;;1.20;99.90;;;;;;4893720;29;20619;-70
2023/01/25 06:23:13;;;;;;;25.25;15.80;;;1.20;99.90;;;;;;4894009;29;20128;-71
2023/01/25 06:25:38;;;;;;;25.45;16.92;;;1.20;99.90;;;;;;4896409;29;20494;-71
2023/01/25 06:28:04;;;;;;;27.10;16.27;;;1.30;99.90;;;;;;4892166;29;20088;-73
2023/01/25 06:30:30;;;;;;;22.92;13.52;;;1.30;99.90;;;;;;4893591;29;20075;-71
2023/01/25 06:32:59;;;;;;;21.73;12.60;;;1.30;99.90;;;;;;4890552;29;20709;-70
2023/01/25 06:35:25;;;;;;;20.92;13.02;;;1.10;99.90;;;;;;4891914;29;20765;-71
2023/01/25 06:37:53;;;;;;;15.27;10.40;;;1.00;99.90;;;;;;4884509;29;20048;-70
2023/01/25 06:40:19;;;;;;;15.02;10.38;;;0.90;99.90;;;;;;4896519;29;20104;-70
2023/01/25 06:42:45;;;;;;;14.38;10.35;;;0.80;99.90;;;;;;4894617;29;20048;-70
2023/01/25 06:45:10;;;;;;;16.08;10.13;;;0.70;99.90;;;;;;4891857;29;20036;-70
2023/01/25 06:47:36;;;;;;;20.70;12.90;;;0.70;99.90;;;;;;4898403;29;20462;-70
2023/01/25 06:50:02;;;;;;;12.95;8.57;;;0.70;99.90;;;;;;4902073;29;21183;-70
2023/01/25 06:52:29;;;;;;;12.35;7.43;;;0.70;99.90;;;;;;4905727;29;20040;-72
2023/01/25 06:54:55;;;;;;;11.10;7.13;;;0.70;99.90;;;;;;4899419;29;20116;-70
2023/01/25 06:57:20;;;;;;;15.85;8.25;;;0.60;99.90;;;;;;4906425;29;20615;-70
2023/01/25 06:59:46;;;;;;;18.52;11.60;;;0.60;99.90;;;;;;4902201;29;20139;-70
2023/01/25 07:02:14;;;;;;;25.88;14.38;;;0.60;99.90;;;;;;4902379;29;20202;-70
2023/01/25 07:04:40;;;;;;;26.50;14.60;;;0.50;99.90;;;;;;4897718;29;20052;-69
2023/01/25 07:07:08;;;;;;;20.55;12.43;;;0.50;99.90;;;;;;4904030;29;20066;-70
2023/01/25 07:09:35;;;;;;;20.63;12.68;;;0.50;99.90;;;;;;4910658;29;20044;-70
2023/01/25 07:12:03;;;;;;;20.35;12.52;;;0.60;99.90;;;;;;4886039;29;20067;-70
2023/01/25 07:14:29;;;;;;;21.30;12.43;;;0.60;99.90;;;;;;4906584;29;20090;-70
2023/01/25 07:16:55;;;;;;;20.45;12.27;;;0.70;99.90;;;;;;4900537;29;20083;-71
2023/01/25 07:19:21;;;;;;;21.67;13.38;;;0.80;99.90;;;;;;4903259;29;20044;-70
2023/01/25 07:21:46;;;;;;;23.70;14.13;;;0.90;99.90;;;;;;4904574;29;20047;-69
2023/01/25 07:24:18;;;;;;;26.40;15.00;;;0.90;99.90;;;;;;4903356;29;20040;-70
2023/01/25 07:26:44;;;;;;;;;;;1.10;99.90;;;;;;4904308;29;20057;-70
2023/01/25 07:29:13;;;;;;;22.35;13.35;;;1.20;99.90;;;;;;4899242;29;19911;-70
2023/01/25 07:31:40;;;;;;;20.63;12.57;;;1.30;99.90;;;;;;4900600;29;20508;-69
2023/01/25 07:34:08;;;;;;;15.60;11.02;;;1.40;99.90;;;;;;4905534;29;20472;-70
2023/01/25 07:36:34;;;;;;;25.83;15.93;;;1.60;99.90;;;;;;4905847;29;20042;-71
2023/01/25 07:39:00;;;;;;;39.97;22.75;;;1.70;99.90;;;;;;4908627;29;20036;-71
2023/01/25 07:41:26;;;;;;;34.03;22.42;;;1.80;99.90;;;;;;4912430;29;20032;-71
2023/01/25 07:43:52;;;;;;;49.42;32.40;;;1.90;99.90;;;;;;4907291;29;20405;-73
2023/01/25 07:46:19;;;;;;;39.63;27.88;;;2.10;99.90;;;;;;4901003;29;20032;-74
2023/01/25 07:48:49;;;;;;;37.17;26.88;;;2.40;99.90;;;;;;4903976;29;20036;-74
2023/01/25 07:51:22;;;;;;;42.42;30.02;;;2.50;99.90;;;;;;4904688;29;20095;-74
2023/01/25 07:54:00;;;;;;;33.50;23.30;;;2.70;99.90;;;;;;4904863;29;20048;-73
2023/01/25 07:56:28;;;;;;;36.60;24.65;;;2.80;99.90;;;;;;4914232;29;20033;-74
2023/01/25 07:58:55;;;;;;;40.15;24.77;;;3.10;99.90;;;;;;4907100;29;20052;-74
2023/01/25 08:01:24;;;;;;;32.35;20.48;;;3.30;99.90;;;;;;4910774;29;20052;-73
2023/01/25 08:03:50;;;;;;;40.65;26.73;;;3.60;99.90;;;;;;4906296;29;20039;-73
2023/01/25 08:06:16;;;;;;;41.30;28.55;;;3.80;99.90;;;;;;4904287;29;20059;-73
2023/01/25 08:08:45;;;;;;;50.58;34.33;;;4.00;99.90;;;;;;4913477;29;20040;-74
2023/01/25 08:11:23;;;;;;;61.33;38.58;;;4.30;99.90;;;;;;4909013;29;20050;-73
2023/01/25 08:13:49;;;;;;;55.15;33.88;;;4.60;99.90;;;;;;4915099;29;20044;-72
2023/01/25 08:16:17;;;;;;;35.13;24.88;;;4.80;99.90;;;;;;4914762;29;20039;-72
2023/01/25 08:18:46;;;;;;;38.63;25.40;;;5.00;99.90;;;;;;4910762;29;20108;-72
2023/01/25 08:21:11;;;;;;;25.80;16.65;;;5.30;99.90;;;;;;4901986;29;20064;-72
2023/01/25 08:23:37;;;;;;;46.10;26.60;;;5.20;99.90;;;;;;4906675;29;20509;-73
2023/01/25 08:26:09;;;;;;;49.40;27.67;;;4.90;99.90;;;;;;4907622;29;20028;-72
2023/01/25 08:28:34;;;;;;;36.80;23.25;;;4.60;99.90;;;;;;4903583;29;20128;-72
2023/01/25 08:31:11;;;;;;;32.80;20.25;;;4.50;99.90;;;;;;4907071;29;20114;-72
2023/01/25 08:33:37;;;;;;;27.70;17.65;;;4.40;99.90;;;;;;4901639;29;20119;-72
2023/01/25 08:36:03;;;;;;;22.77;14.82;;;4.40;99.90;;;;;;4898096;29;20064;-72
2023/01/25 08:38:29;;;;;;;20.00;14.10;;;4.40;99.90;;;;;;4897900;29;20059;-73
2023/01/25 08:40:55;;;;;;;21.90;13.57;;;4.50;99.90;;;;;;4904797;29;20032;-72
2023/01/25 08:43:20;;;;;;;19.13;11.93;;;4.60;99.90;;;;;;4901422;29;20052;-74
2023/01/25 08:45:55;;;;;;;13.32;9.02;;;4.60;99.90;;;;;;4897033;29;20036;-74
2023/01/25 08:48:21;;;;;;;10.48;7.38;;;4.70;99.90;;;;;;4895442;29;20044;-75
2023/01/25 08:50:46;;;;;;;13.02;7.90;;;4.70;99.90;;;;;;4896652;29;20292;-74
2023/01/25 08:53:13;;;;;;;10.63;7.53;;;4.70;99.90;;;;;;4898403;29;20045;-74
2023/01/25 08:55:40;;;;;;;8.20;4.95;;;4.80;99.90;;;;;;4901117;29;20051;-74
2023/01/25 08:58:09;;;;;;;6.93;5.07;;;4.70;99.90;;;;;;4904883;29;20059;-75
2023/01/25 09:00:36;;;;;;;6.82;5.40;;;4.70;99.90;;;;;;4899622;29;20513;-73
2023/01/25 09:03:02;;;;;;;6.65;5.13;;;4.70;99.90;;;;;;4900612;29;20695;-73
2023/01/25 09:05:28;;;;;;;7.75;5.22;;;4.90;99.90;;;;;;4902900;29;20089;-73
2023/01/25 09:07:53;;;;;;;6.95;5.07;;;5.00;99.90;;;;;;4893915;29;20052;-70
2023/01/25 09:10:19;;;;;;;7.25;5.00;;;5.10;99.90;;;;;;4902824;29;20119;-70
2023/01/25 09:12:44;;;;;;;9.02;5.20;;;5.20;99.90;;;;;;4900272;29;20047;-70
2023/01/25 09:15:10;;;;;;;7.00;4.97;;;5.10;99.90;;;;;;4900575;29;20799;-71
2023/01/25 09:17:37;;;;;;;6.70;4.93;;;5.20;99.90;;;;;;4902070;29;20060;-70
2023/01/25 09:20:05;;;;;;;6.40;5.07;;;5.30;99.90;;;;;;4902543;29;20560;-73
2023/01/25 09:22:31;;;;;;;5.95;4.60;;;5.20;99.90;;;;;;4903683;29;20124;-73
2023/01/25 09:24:57;;;;;;;5.75;4.28;;;5.30;99.90;;;;;;4899752;29;20108;-72
2023/01/25 09:27:22;;;;;;;5.85;4.32;;;5.20;99.90;;;;;;4891181;29;20040;-73
2023/01/25 09:29:48;;;;;;;6.57;4.72;;;5.10;99.90;;;;;;4902130;29;20188;-73
2023/01/25 09:32:13;;;;;;;8.13;5.05;;;5.00;99.90;;;;;;4899646;29;20033;-72
2023/01/25 09:34:39;;;;;;;7.55;5.43;;;5.00;99.90;;;;;;4901605;29;20095;-73
2023/01/25 09:37:05;;;;;;;6.53;4.93;;;5.10;99.90;;;;;;4901967;29;20504;-71
2023/01/25 09:39:30;;;;;;;6.35;5.22;;;5.10;99.90;;;;;;4905198;29;20663;-72
2023/01/25 09:42:19;;;;;;;7.45;5.43;;;5.20;99.90;;;;;;4900318;29;20528;-71
2023/01/25 09:45:15;;;;;;;5.57;4.38;;;5.10;99.90;;;;;;4901263;29;20104;-71
2023/01/25 09:48:12;;;;;;;5.93;4.82;;;5.00;99.90;;;;;;4900033;29;20159;-71
2023/01/25 09:51:05;;;;;;;7.13;5.03;;;4.90;99.90;;;;;;4900460;29;20107;-71
2023/01/25 09:53:37;;;;;;;6.28;4.80;;;4.90;99.90;;;;;;4905956;29;20652;-71
2023/01/25 09:56:11;;;;;;;6.95;5.13;;;4.90;99.90;;;;;;4903195;29;20103;-70
2023/01/25 09:58:41;;;;;;;5.90;4.68;;;5.00;99.90;;;;;;4904119;29;20111;-72
2023/01/25 10:01:18;;;;;;;6.20;4.75;;;5.00;99.90;;;;;;4902985;29;20036;-71
2023/01/25 10:03:57;;;;;;;6.95;5.40;;;4.90;99.90;;;;;;4902039;29;20048;-72
2023/01/25 10:06:36;;;;;;;5.05;4.20;;;4.90;99.90;;;;;;4905458;29;20028;-72
2023/01/25 10:09:20;;;;;;;5.80;3.90;;;4.80;99.90;;;;;;4902987;29;20071;-72
2023/01/25 10:11:46;;;;;;;7.45;4.63;;;4.80;99.90;;;;;;4906015;29;20096;-73
2023/01/25 10:14:15;;;;;;;7.53;5.30;;;4.70;99.90;;;;;;4903249;29;20060;-73
2023/01/25 10:16:46;;;;;;;7.22;4.68;;;4.70;99.90;;;;;;4903669;29;20032;-73
2023/01/25 10:19:53;;;;;;;7.80;5.32;;;4.70;99.90;;;;;;4902441;29;20047;-72
2023/01/25 10:22:33;;;;;;;6.93;4.82;;;4.60;99.90;;;;;;4877256;29;20059;-73
2023/01/25 10:25:06;;;;;;;7.20;5.60;;;4.60;99.90;;;;;;4882906;29;20045;-71
2023/01/25 10:28:05;;;;;;;9.43;5.63;;;4.60;99.90;;;;;;4892685;29;20044;-73
2023/01/25 10:30:53;;;;;;;8.02;6.03;;;4.50;99.90;;;;;;4900663;29;20520;-72
2023/01/25 10:33:20;;;;;;;7.00;6.30;;;4.50;99.90;;;;;;4900853;29;20046;-73
2023/01/25 10:35:48;;;;;;;8.63;6.25;;;4.50;99.90;;;;;;4907576;29;20036;-72
2023/01/25 10:38:43;;;;;;;7.78;6.18;;;4.50;99.90;;;;;;4905620;29;20060;-72
2023/01/25 10:41:20;;;;;;;10.75;6.47;;;4.40;99.90;;;;;;4900831;29;20160;-73
2023/01/25 10:43:46;;;;;;;7.43;5.70;;;4.40;99.90;;;;;;4901292;29;20040;-72
2023/01/25 10:46:30;;;;;;;7.53;5.60;;;4.40;99.90;;;;;;4900102;29;20676;-72
2023/01/25 10:48:56;;;;;;;7.82;6.43;;;4.30;99.90;;;;;;4900110;29;20056;-72
2023/01/25 10:51:34;;;;;;;7.05;5.65;;;4.30;99.90;;;;;;4899362;29;20062;-72
2023/01/25 10:54:07;;;;;;;7.63;5.63;;;4.30;99.90;;;;;;4902762;29;20824;-71
2023/01/25 10:56:37;;;;;;;9.00;5.72;;;4.40;99.90;;;;;;4898075;29;20060;-71
2023/01/25 10:59:25;;;;;;;8.13;5.60;;;4.40;99.90;;;;;;4886996;29;20051;-71
2023/01/25 11:01:51;;;;;;;7.45;5.57;;;4.40;99.90;;;;;;4900920;29;20067;-71
2023/01/25 11:04:31;;;;;;;7.30;5.35;;;4.40;99.90;;;;;;4903784;29;20099;-71
2023/01/25 11:06:57;;;;;;;10.00;5.38;;;4.30;99.90;;;;;;4901424;29;20044;-71
2023/01/25 11:09:30;;;;;;;8.40;5.50;;;4.30;99.90;;;;;;4897133;29;20028;-71
2023/01/25 11:11:58;;;;;;;9.27;6.35;;;4.30;99.90;;;;;;4909876;29;20785;-71
2023/01/25 11:14:26;;;;;;;7.50;5.68;;;4.20;99.90;;;;;;4901622;29;20136;-71
2023/01/25 11:16:54;;;;;;;8.55;5.65;;;4.20;99.90;;;;;;4896130;29;20123;-72
2023/01/25 11:19:39;;;;;;;7.03;5.57;;;4.30;99.90;;;;;;4901384;29;21143;-71
2023/01/25 11:22:27;;;;;;;6.53;5.07;;;4.20;99.90;;;;;;4902041;29;20036;-71
2023/01/25 11:24:53;;;;;;;7.88;5.70;;;4.20;99.90;;;;;;4887011;29;20768;-71
2023/01/25 11:27:22;;;;;;;7.25;5.50;;;4.20;99.90;;;;;;4899880;29;20044;-71
2023/01/25 11:30:09;;;;;;;8.48;5.65;;;4.30;99.90;;;;;;4884156;29;20393;-71
2023/01/25 11:32:38;;;;;;;14.90;11.13;;;4.30;99.90;;;;;;4894773;29;20036;-72
2023/01/25 11:35:14;;;;;;;10.50;8.18;;;4.40;99.90;;;;;;4899074;29;20067;-73
2023/01/25 11:37:43;;;;;;;8.05;5.45;;;4.60;99.90;;;;;;4897382;29;20131;-73
2023/01/25 11:40:14;;;;;;;12.23;9.45;;;4.70;99.90;;;;;;4897706;29;20047;-71
2023/01/25 11:43:04;;;;;;;8.50;6.10;;;4.70;99.90;;;;;;4900435;29;20134;-70
2023/01/25 11:45:33;;;;;;;8.00;6.28;;;4.70;99.90;;;;;;4901594;29;20139;-71
2023/01/25 11:48:06;;;;;;;6.65;5.03;;;4.70;99.90;;;;;;4899151;29;20043;-72
2023/01/25 11:50:37;;;;;;;7.70;5.20;;;4.60;99.90;;;;;;4905528;29;20119;-72
2023/01/25 11:53:45;;;;;;;8.20;6.17;;;4.60;99.90;;;;;;4904324;29;20036;-72
2023/01/25 11:56:52;;;;;;;8.15;6.00;;;4.60;99.90;;;;;;4896347;29;20076;-72
2023/01/25 11:59:33;;;;;;;8.20;5.72;;;4.70;99.90;;;;;;4891361;29;20135;-71
2023/01/25 12:02:36;;;;;;;7.80;5.82;;;4.70;99.90;;;;;;4897421;29;20155;-72
2023/01/25 12:05:27;;;;;;;7.60;6.10;;;4.70;99.90;;;;;;4898957;29;20040;-73
2023/01/25 12:08:06;;;;;;;8.13;6.40;;;4.60;99.90;;;;;;4895660;29;20039;-72
2023/01/25 12:11:02;;;;;;;10.02;7.07;;;4.60;99.90;;;;;;4900477;29;20035;-71
2023/01/25 12:13:33;;;;;;;7.60;5.93;;;4.50;99.90;;;;;;4902626;29;20171;-71
2023/01/25 12:16:27;;;;;;;7.90;5.95;;;4.50;99.90;;;;;;4895911;29;20090;-71
2023/01/25 12:19:41;;;;;;;8.90;6.10;;;4.50;99.90;;;;;;4897793;29;20052;-71
2023/01/25 12:22:30;;;;;;;8.43;5.85;;;4.50;99.90;;;;;;4862345;29;20165;-71
2023/01/25 12:25:14;;;;;;;10.48;5.53;;;4.50;99.90;;;;;;4903313;29;20170;-71
2023/01/25 12:27:50;;;;;;;11.70;6.47;;;4.60;99.90;;;;;;4898261;29;20677;-73
2023/01/25 12:30:35;;;;;;;7.40;5.60;;;4.60;99.90;;;;;;4892942;29;20112;-72
2023/01/25 12:33:12;;;;;;;7.40;5.35;;;4.70;99.90;;;;;;4897378;29;20473;-71
2023/01/25 12:36:00;;;;;;;6.78;5.15;;;4.60;99.90;;;;;;4895622;29;20540;-71
2023/01/25 12:38:51;;;;;;;8.32;5.47;;;4.50;99.90;;;;;;4902672;29;20052;-71
2023/01/25 12:41:43;;;;;;;12.65;5.70;;;4.50;99.90;;;;;;4900058;29;20490;-73
2023/01/25 12:44:40;;;;;;;7.82;5.63;;;4.60;99.90;;;;;;4899942;29;20122;-72
2023/01/25 12:47:09;;;;;;;10.00;5.93;;;4.60;99.90;;;;;;4900319;29;20192;-67
2023/01/25 12:49:53;;;;;;;7.68;5.47;;;4.50;99.90;;;;;;4894498;29;20043;-73
2023/01/25 12:52:41;;;;;;;8.45;5.93;;;4.50;99.90;;;;;;4906913;29;20070;-74
2023/01/25 12:55:13;;;;;;;8.05;5.53;;;4.50;99.90;;;;;;4890163;29;20127;-75
2023/01/25 12:57:47;;;;;;;;;;;4.50;99.90;;;;;;4897810;29;20056;-74
2023/01/25 13:00:21;;;;;;;7.70;5.35;;;4.40;99.90;;;;;;4902362;29;20411;-74
2023/01/25 13:02:54;;;;;;;8.13;5.72;;;4.60;99.90;;;;;;4891772;29;20076;-75
2023/01/25 13:05:47;;;;;;;8.30;5.80;;;4.60;99.90;;;;;;4893036;29;20048;-75